sensor_id;sensor_type;location;lat;lon;timestamp;pressure;altitude;pressure_sealevel;temperature
77728;BMP280;68312;53.502;10.030;2023-07-20T00:02:03;101426.69;;;13.35
77728;BMP280;68312;53.502;10.030;2023-07-20T00:04:30;101426.38;;;13.36
77728;BMP280;68312;53.502;10.030;2023-07-20T00:06:56;101427.28;;;13.40
77728;BMP280;68312;53.502;10.030;2023-07-20T00:09:21;101421.84;;;13.45
77728;BMP280;68312;53.502;10.030;2023-07-20T00:11:51;101420.44;;;13.48
77728;BMP280;68312;53.502;10.030;2023-07-20T00:14:18;101426.94;;;13.50
77728;BMP280;68312;53.502;10.030;2023-07-20T00:16:49;101425.06;;;13.51
77728;BMP280;68312;53.502;10.030;2023-07-20T00:19:22;101427.53;;;13.56
77728;BMP280;68312;53.502;10.030;2023-07-20T00:21:48;101427.38;;;13.60
77728;BMP280;68312;53.502;10.030;2023-07-20T00:24:14;101427.94;;;13.66
77728;BMP280;68312;53.502;10.030;2023-07-20T00:26:39;101424.38;;;13.70
77728;BMP280;68312;53.502;10.030;2023-07-20T00:29:05;101423.06;;;13.76
77728;BMP280;68312;53.502;10.030;2023-07-20T00:31:30;101422.56;;;13.83
77728;BMP280;68312;53.502;10.030;2023-07-20T00:33:56;101420.06;;;13.86
77728;BMP280;68312;53.502;10.030;2023-07-20T00:36:21;101420.34;;;13.93
77728;BMP280;68312;53.502;10.030;2023-07-20T00:38:47;101414.44;;;13.96
77728;BMP280;68312;53.502;10.030;2023-07-20T00:41:12;101428.34;;;14.05
77728;BMP280;68312;53.502;10.030;2023-07-20T00:43:38;101425.81;;;14.08
77728;BMP280;68312;53.502;10.030;2023-07-20T00:46:04;101421.00;;;14.10
77728;BMP280;68312;53.502;10.030;2023-07-20T00:48:30;101420.03;;;14.14
77728;BMP280;68312;53.502;10.030;2023-07-20T00:50:58;101419.41;;;14.17
77728;BMP280;68312;53.502;10.030;2023-07-20T00:53:26;101421.38;;;14.20
77728;BMP280;68312;53.502;10.030;2023-07-20T00:55:52;101414.69;;;14.23
77728;BMP280;68312;53.502;10.030;2023-07-20T00:58:17;101416.69;;;14.26
77728;BMP280;68312;53.502;10.030;2023-07-20T01:00:43;101417.16;;;14.28
77728;BMP280;68312;53.502;10.030;2023-07-20T01:03:08;101411.97;;;14.31
77728;BMP280;68312;53.502;10.030;2023-07-20T01:06:01;101407.81;;;14.30
77728;BMP280;68312;53.502;10.030;2023-07-20T01:08:45;101414.75;;;14.35
77728;BMP280;68312;53.502;10.030;2023-07-20T01:11:37;101418.59;;;14.37
77728;BMP280;68312;53.502;10.030;2023-07-20T01:14:09;101421.72;;;14.39
77728;BMP280;68312;53.502;10.030;2023-07-20T01:16:36;101423.47;;;14.35
77728;BMP280;68312;53.502;10.030;2023-07-20T01:19:02;101428.97;;;14.30
77728;BMP280;68312;53.502;10.030;2023-07-20T01:21:50;101428.03;;;14.26
77728;BMP280;68312;53.502;10.030;2023-07-20T01:27:36;101419.25;;;14.14
77728;BMP280;68312;53.502;10.030;2023-07-20T01:30:40;101422.44;;;14.08
77728;BMP280;68312;53.502;10.030;2023-07-20T01:33:09;101419.53;;;14.01
77728;BMP280;68312;53.502;10.030;2023-07-20T01:35:38;101420.03;;;13.94
77728;BMP280;68312;53.502;10.030;2023-07-20T01:38:07;101421.78;;;13.90
77728;BMP280;68312;53.502;10.030;2023-07-20T01:40:34;101414.16;;;13.89
77728;BMP280;68312;53.502;10.030;2023-07-20T01:43:00;101418.19;;;13.86
77728;BMP280;68312;53.502;10.030;2023-07-20T01:45:54;101412.16;;;13.86
77728;BMP280;68312;53.502;10.030;2023-07-20T01:48:20;101410.19;;;13.83
77728;BMP280;68312;53.502;10.030;2023-07-20T01:50:45;101413.59;;;13.84
77728;BMP280;68312;53.502;10.030;2023-07-20T01:53:11;101405.81;;;13.79
77728;BMP280;68312;53.502;10.030;2023-07-20T01:55:36;101407.69;;;13.78
77728;BMP280;68312;53.502;10.030;2023-07-20T01:58:02;101412.22;;;13.78
77728;BMP280;68312;53.502;10.030;2023-07-20T02:00:28;101409.25;;;13.79
77728;BMP280;68312;53.502;10.030;2023-07-20T02:02:54;101401.97;;;13.76
77728;BMP280;68312;53.502;10.030;2023-07-20T02:05:19;101397.47;;;13.77
77728;BMP280;68312;53.502;10.030;2023-07-20T02:07:45;101401.19;;;13.76
77728;BMP280;68312;53.502;10.030;2023-07-20T02:10:10;101399.66;;;13.75
77728;BMP280;68312;53.502;10.030;2023-07-20T02:12:36;101404.94;;;13.75
77728;BMP280;68312;53.502;10.030;2023-07-20T02:15:02;101409.09;;;13.76
77728;BMP280;68312;53.502;10.030;2023-07-20T02:17:28;101401.50;;;13.74
77728;BMP280;68312;53.502;10.030;2023-07-20T02:19:54;101419.97;;;13.74
77728;BMP280;68312;53.502;10.030;2023-07-20T02:22:21;101427.28;;;13.77
77728;BMP280;68312;53.502;10.030;2023-07-20T02:24:47;101431.47;;;13.78
77728;BMP280;68312;53.502;10.030;2023-07-20T02:27:12;101426.19;;;13.78
77728;BMP280;68312;53.502;10.030;2023-07-20T02:29:38;101420.78;;;13.75
77728;BMP280;68312;53.502;10.030;2023-07-20T02:32:04;101425.59;;;13.73
77728;BMP280;68312;53.502;10.030;2023-07-20T02:34:58;101428.25;;;13.73
77728;BMP280;68312;53.502;10.030;2023-07-20T02:37:23;101425.72;;;13.76
77728;BMP280;68312;53.502;10.030;2023-07-20T02:39:49;101421.84;;;13.74
77728;BMP280;68312;53.502;10.030;2023-07-20T02:42:15;101416.47;;;13.70
77728;BMP280;68312;53.502;10.030;2023-07-20T02:44:40;101419.41;;;13.69
77728;BMP280;68312;53.502;10.030;2023-07-20T02:47:06;101419.69;;;13.67
77728;BMP280;68312;53.502;10.030;2023-07-20T02:49:31;101427.31;;;13.69
77728;BMP280;68312;53.502;10.030;2023-07-20T02:51:57;101424.97;;;13.67
77728;BMP280;68312;53.502;10.030;2023-07-20T02:54:22;101424.97;;;13.67
77728;BMP280;68312;53.502;10.030;2023-07-20T02:56:48;101427.19;;;13.65
77728;BMP280;68312;53.502;10.030;2023-07-20T02:59:13;101416.63;;;13.65
77728;BMP280;68312;53.502;10.030;2023-07-20T03:01:39;101423.78;;;13.65
77728;BMP280;68312;53.502;10.030;2023-07-20T03:04:04;101434.63;;;13.63
77728;BMP280;68312;53.502;10.030;2023-07-20T03:06:29;101430.78;;;13.61
77728;BMP280;68312;53.502;10.030;2023-07-20T03:08:55;101442.75;;;13.58
77728;BMP280;68312;53.502;10.030;2023-07-20T03:11:21;101440.88;;;13.59
77728;BMP280;68312;53.502;10.030;2023-07-20T03:13:47;101445.38;;;13.58
77728;BMP280;68312;53.502;10.030;2023-07-20T03:16:15;101449.56;;;13.59
77728;BMP280;68312;53.502;10.030;2023-07-20T03:18:43;101443.50;;;13.59
77728;BMP280;68312;53.502;10.030;2023-07-20T03:21:09;101434.81;;;13.58
77728;BMP280;68312;53.502;10.030;2023-07-20T03:23:39;101448.50;;;13.60
77728;BMP280;68312;53.502;10.030;2023-07-20T03:26:05;101449.88;;;13.58
77728;BMP280;68312;53.502;10.030;2023-07-20T03:28:33;101445.88;;;13.52
77728;BMP280;68312;53.502;10.030;2023-07-20T03:31:02;101447.13;;;13.55
77728;BMP280;68312;53.502;10.030;2023-07-20T03:33:29;101438.25;;;13.51
77728;BMP280;68312;53.502;10.030;2023-07-20T03:35:55;101441.66;;;13.51
77728;BMP280;68312;53.502;10.030;2023-07-20T03:38:22;101447.75;;;13.52
77728;BMP280;68312;53.502;10.030;2023-07-20T03:40:57;101448.97;;;13.54
77728;BMP280;68312;53.502;10.030;2023-07-20T03:43:25;101453.16;;;13.55
77728;BMP280;68312;53.502;10.030;2023-07-20T03:45:51;101449.75;;;13.55
77728;BMP280;68312;53.502;10.030;2023-07-20T03:48:19;101447.13;;;13.55
77728;BMP280;68312;53.502;10.030;2023-07-20T03:50:47;101448.31;;;13.57
77728;BMP280;68312;53.502;10.030;2023-07-20T03:53:14;101446.44;;;13.57
77728;BMP280;68312;53.502;10.030;2023-07-20T03:55:43;101454.84;;;13.59
77728;BMP280;68312;53.502;10.030;2023-07-20T03:58:11;101448.16;;;13.62
77728;BMP280;68312;53.502;10.030;2023-07-20T04:00:37;101450.81;;;13.62
77728;BMP280;68312;53.502;10.030;2023-07-20T04:03:02;101452.63;;;13.61
77728;BMP280;68312;53.502;10.030;2023-07-20T04:05:27;101451.25;;;13.64
77728;BMP280;68312;53.502;10.030;2023-07-20T04:07:53;101452.03;;;13.64
77728;BMP280;68312;53.502;10.030;2023-07-20T04:10:19;101449.06;;;13.66
77728;BMP280;68312;53.502;10.030;2023-07-20T04:12:45;101452.94;;;13.68
77728;BMP280;68312;53.502;10.030;2023-07-20T04:15:49;101450.78;;;13.70
77728;BMP280;68312;53.502;10.030;2023-07-20T04:18:14;101450.13;;;13.73
77728;BMP280;68312;53.502;10.030;2023-07-20T04:20:40;101450.28;;;13.77
77728;BMP280;68312;53.502;10.030;2023-07-20T04:23:05;101452.09;;;13.85
77728;BMP280;68312;53.502;10.030;2023-07-20T04:25:31;101453.00;;;13.88
77728;BMP280;68312;53.502;10.030;2023-07-20T04:28:04;101456.75;;;13.87
77728;BMP280;68312;53.502;10.030;2023-07-20T04:30:29;101466.50;;;13.87
77728;BMP280;68312;53.502;10.030;2023-07-20T04:32:55;101463.56;;;13.88
77728;BMP280;68312;53.502;10.030;2023-07-20T04:35:52;101461.53;;;13.94
77728;BMP280;68312;53.502;10.030;2023-07-20T04:38:19;101465.41;;;13.96
77728;BMP280;68312;53.502;10.030;2023-07-20T04:40:46;101468.47;;;13.98
77728;BMP280;68312;53.502;10.030;2023-07-20T04:43:14;101473.63;;;13.95
77728;BMP280;68312;53.502;10.030;2023-07-20T04:45:40;101455.13;;;13.95
77728;BMP280;68312;53.502;10.030;2023-07-20T04:48:10;101469.13;;;13.95
77728;BMP280;68312;53.502;10.030;2023-07-20T04:50:37;101460.84;;;13.97
77728;BMP280;68312;53.502;10.030;2023-07-20T04:53:04;101460.56;;;13.98
77728;BMP280;68312;53.502;10.030;2023-07-20T04:55:30;101463.47;;;14.05
77728;BMP280;68312;53.502;10.030;2023-07-20T04:57:55;101462.19;;;14.11
77728;BMP280;68312;53.502;10.030;2023-07-20T05:00:20;101463.34;;;14.22
77728;BMP280;68312;53.502;10.030;2023-07-20T05:02:46;101462.25;;;14.23
77728;BMP280;68312;53.502;10.030;2023-07-20T05:05:14;101462.84;;;14.28
77728;BMP280;68312;53.502;10.030;2023-07-20T05:07:40;101462.34;;;14.35
77728;BMP280;68312;53.502;10.030;2023-07-20T05:10:06;101458.03;;;14.30
77728;BMP280;68312;53.502;10.030;2023-07-20T05:12:32;101461.94;;;14.24
77728;BMP280;68312;53.502;10.030;2023-07-20T05:14:57;101461.69;;;14.17
77728;BMP280;68312;53.502;10.030;2023-07-20T05:17:23;101455.63;;;14.17
77728;BMP280;68312;53.502;10.030;2023-07-20T05:19:49;101454.66;;;14.21
77728;BMP280;68312;53.502;10.030;2023-07-20T05:22:15;101460.72;;;14.22
77728;BMP280;68312;53.502;10.030;2023-07-20T05:24:41;101460.50;;;14.27
77728;BMP280;68312;53.502;10.030;2023-07-20T05:27:07;101461.09;;;14.32
77728;BMP280;68312;53.502;10.030;2023-07-20T05:29:32;101458.94;;;14.34
77728;BMP280;68312;53.502;10.030;2023-07-20T05:32:29;101460.28;;;14.40
77728;BMP280;68312;53.502;10.030;2023-07-20T05:34:54;101468.78;;;14.45
77728;BMP280;68312;53.502;10.030;2023-07-20T05:37:20;101464.69;;;14.48
77728;BMP280;68312;53.502;10.030;2023-07-20T05:39:47;101463.41;;;14.54
77728;BMP280;68312;53.502;10.030;2023-07-20T05:42:12;101454.66;;;14.62
77728;BMP280;68312;53.502;10.030;2023-07-20T05:44:38;101459.88;;;14.70
77728;BMP280;68312;53.502;10.030;2023-07-20T05:47:13;101462.66;;;14.73
77728;BMP280;68312;53.502;10.030;2023-07-20T05:49:39;101464.50;;;14.73
77728;BMP280;68312;53.502;10.030;2023-07-20T05:52:04;101461.75;;;14.81
77728;BMP280;68312;53.502;10.030;2023-07-20T05:54:30;101462.69;;;14.85
77728;BMP280;68312;53.502;10.030;2023-07-20T05:56:55;101462.88;;;14.92
77728;BMP280;68312;53.502;10.030;2023-07-20T05:59:21;101468.47;;;14.99
77728;BMP280;68312;53.502;10.030;2023-07-20T06:01:49;101464.69;;;15.00
77728;BMP280;68312;53.502;10.030;2023-07-20T06:04:15;101475.66;;;15.10
77728;BMP280;68312;53.502;10.030;2023-07-20T06:06:42;101461.34;;;15.11
77728;BMP280;68312;53.502;10.030;2023-07-20T06:09:07;101464.06;;;15.15
77728;BMP280;68312;53.502;10.030;2023-07-20T06:11:37;101463.22;;;15.23
77728;BMP280;68312;53.502;10.030;2023-07-20T06:14:03;101477.00;;;15.28
77728;BMP280;68312;53.502;10.030;2023-07-20T06:16:28;101481.75;;;15.34
77728;BMP280;68312;53.502;10.030;2023-07-20T06:18:54;101469.09;;;15.52
77728;BMP280;68312;53.502;10.030;2023-07-20T06:25:01;101476.63;;;15.85
77728;BMP280;68312;53.502;10.030;2023-07-20T06:27:27;101474.25;;;15.95
77728;BMP280;68312;53.502;10.030;2023-07-20T06:29:52;101474.34;;;15.87
77728;BMP280;68312;53.502;10.030;2023-07-20T06:32:17;101478.03;;;16.06
77728;BMP280;68312;53.502;10.030;2023-07-20T06:34:43;101476.00;;;16.15
77728;BMP280;68312;53.502;10.030;2023-07-20T06:37:08;101476.56;;;16.08
77728;BMP280;68312;53.502;10.030;2023-07-20T06:39:34;101474.44;;;16.14
77728;BMP280;68312;53.502;10.030;2023-07-20T06:41:59;101476.31;;;16.52
77728;BMP280;68312;53.502;10.030;2023-07-20T06:44:25;101469.78;;;16.61
77728;BMP280;68312;53.502;10.030;2023-07-20T06:46:50;101467.84;;;16.74
77728;BMP280;68312;53.502;10.030;2023-07-20T06:49:25;101463.88;;;16.68
77728;BMP280;68312;53.502;10.030;2023-07-20T06:51:52;101467.09;;;16.46
77728;BMP280;68312;53.502;10.030;2023-07-20T06:54:18;101467.81;;;16.59
77728;BMP280;68312;53.502;10.030;2023-07-20T06:56:43;101466.63;;;16.44
77728;BMP280;68312;53.502;10.030;2023-07-20T06:59:10;101467.16;;;16.50
77728;BMP280;68312;53.502;10.030;2023-07-20T07:01:35;101467.38;;;16.72
77728;BMP280;68312;53.502;10.030;2023-07-20T07:04:01;101458.44;;;16.91
77728;BMP280;68312;53.502;10.030;2023-07-20T07:06:26;101450.69;;;17.14
77728;BMP280;68312;53.502;10.030;2023-07-20T07:08:53;101464.97;;;17.24
77728;BMP280;68312;53.502;10.030;2023-07-20T07:11:18;101458.47;;;17.37
77728;BMP280;68312;53.502;10.030;2023-07-20T07:13:44;101465.91;;;17.32
77728;BMP280;68312;53.502;10.030;2023-07-20T07:16:12;101465.41;;;17.41
77728;BMP280;68312;53.502;10.030;2023-07-20T07:18:39;101466.63;;;17.78
77728;BMP280;68312;53.502;10.030;2023-07-20T07:21:05;101469.44;;;17.85
77728;BMP280;68312;53.502;10.030;2023-07-20T07:23:30;101466.50;;;17.40
77728;BMP280;68312;53.502;10.030;2023-07-20T07:25:56;101462.28;;;16.94
77728;BMP280;68312;53.502;10.030;2023-07-20T07:28:21;101464.22;;;16.82
77728;BMP280;68312;53.502;10.030;2023-07-20T07:30:47;101466.38;;;16.49
77728;BMP280;68312;53.502;10.030;2023-07-20T07:33:12;101466.19;;;16.42
77728;BMP280;68312;53.502;10.030;2023-07-20T07:39:19;101459.97;;;17.38
77728;BMP280;68312;53.502;10.030;2023-07-20T07:41:45;101458.97;;;18.10
77728;BMP280;68312;53.502;10.030;2023-07-20T07:44:10;101456.25;;;18.66
77728;BMP280;68312;53.502;10.030;2023-07-20T07:46:36;101455.66;;;17.98
77728;BMP280;68312;53.502;10.030;2023-07-20T07:49:02;101466.72;;;17.66
77728;BMP280;68312;53.502;10.030;2023-07-20T07:51:27;101470.91;;;17.18
77728;BMP280;68312;53.502;10.030;2023-07-20T07:53:53;101469.03;;;16.91
77728;BMP280;68312;53.502;10.030;2023-07-20T07:56:18;101473.25;;;17.38
77728;BMP280;68312;53.502;10.030;2023-07-20T07:58:51;101476.19;;;17.82
77728;BMP280;68312;53.502;10.030;2023-07-20T08:01:17;101469.41;;;18.00
77728;BMP280;68312;53.502;10.030;2023-07-20T08:03:44;101469.34;;;18.74
77728;BMP280;68312;53.502;10.030;2023-07-20T08:06:15;101470.72;;;19.09
77728;BMP280;68312;53.502;10.030;2023-07-20T08:08:41;101470.31;;;19.33
77728;BMP280;68312;53.502;10.030;2023-07-20T08:11:07;101482.63;;;18.93
77728;BMP280;68312;53.502;10.030;2023-07-20T08:13:33;101484.53;;;18.74
77728;BMP280;68312;53.502;10.030;2023-07-20T08:15:59;101475.06;;;19.21
77728;BMP280;68312;53.502;10.030;2023-07-20T08:18:24;101461.88;;;19.82
77728;BMP280;68312;53.502;10.030;2023-07-20T08:20:50;101466.31;;;19.71
77728;BMP280;68312;53.502;10.030;2023-07-20T08:23:15;101460.50;;;19.91
77728;BMP280;68312;53.502;10.030;2023-07-20T08:25:41;101459.28;;;20.53
77728;BMP280;68312;53.502;10.030;2023-07-20T08:28:13;101461.88;;;20.86
77728;BMP280;68312;53.502;10.030;2023-07-20T08:30:44;101465.72;;;20.13
77728;BMP280;68312;53.502;10.030;2023-07-20T08:33:14;101471.63;;;20.29
77728;BMP280;68312;53.502;10.030;2023-07-20T08:35:41;101464.66;;;20.57
77728;BMP280;68312;53.502;10.030;2023-07-20T08:38:07;101477.50;;;20.84
77728;BMP280;68312;53.502;10.030;2023-07-20T08:40:43;101461.84;;;21.39
77728;BMP280;68312;53.502;10.030;2023-07-20T08:43:10;101467.25;;;22.54
77728;BMP280;68312;53.502;10.030;2023-07-20T08:45:39;101467.09;;;21.95
77728;BMP280;68312;53.502;10.030;2023-07-20T08:48:05;101455.38;;;22.96
77728;BMP280;68312;53.502;10.030;2023-07-20T08:50:33;101462.72;;;21.50
77728;BMP280;68312;53.502;10.030;2023-07-20T08:53:00;101469.53;;;20.52
77728;BMP280;68312;53.502;10.030;2023-07-20T08:58:39;101485.22;;;19.37
77728;BMP280;68312;53.502;10.030;2023-07-20T09:01:06;101475.88;;;19.76
77728;BMP280;68312;53.502;10.030;2023-07-20T09:03:32;101493.19;;;19.59
77728;BMP280;68312;53.502;10.030;2023-07-20T09:05:58;101473.25;;;21.26
77728;BMP280;68312;53.502;10.030;2023-07-20T09:08:24;101475.22;;;22.16
77728;BMP280;68312;53.502;10.030;2023-07-20T09:10:49;101477.47;;;23.55
77728;BMP280;68312;53.502;10.030;2023-07-20T09:13:15;101483.53;;;24.32
77728;BMP280;68312;53.502;10.030;2023-07-20T09:16:01;101473.06;;;23.91
77728;BMP280;68312;53.502;10.030;2023-07-20T09:18:30;101468.75;;;25.01
77728;BMP280;68312;53.502;10.030;2023-07-20T09:21:04;101453.72;;;25.39
77728;BMP280;68312;53.502;10.030;2023-07-20T09:23:38;101463.69;;;23.39
77728;BMP280;68312;53.502;10.030;2023-07-20T09:26:10;101462.78;;;23.73
77728;BMP280;68312;53.502;10.030;2023-07-20T09:28:47;101465.44;;;24.40
77728;BMP280;68312;53.502;10.030;2023-07-20T09:31:20;101470.69;;;22.75
77728;BMP280;68312;53.502;10.030;2023-07-20T09:33:48;101468.28;;;22.05
77728;BMP280;68312;53.502;10.030;2023-07-20T09:36:15;101477.88;;;23.32
77728;BMP280;68312;53.502;10.030;2023-07-20T09:38:44;101472.00;;;23.75
77728;BMP280;68312;53.502;10.030;2023-07-20T09:41:15;101483.09;;;21.78
77728;BMP280;68312;53.502;10.030;2023-07-20T09:43:43;101513.28;;;19.79
77728;BMP280;68312;53.502;10.030;2023-07-20T09:46:12;101538.84;;;19.10
77728;BMP280;68312;53.502;10.030;2023-07-20T09:48:37;101532.16;;;18.04
77728;BMP280;68312;53.502;10.030;2023-07-20T09:51:03;101535.06;;;17.50
77728;BMP280;68312;53.502;10.030;2023-07-20T09:53:32;101546.13;;;16.68
77728;BMP280;68312;53.502;10.030;2023-07-20T09:55:59;101537.34;;;16.79
77728;BMP280;68312;53.502;10.030;2023-07-20T09:58:26;101536.97;;;16.92
77728;BMP280;68312;53.502;10.030;2023-07-20T10:00:54;101529.47;;;17.25
77728;BMP280;68312;53.502;10.030;2023-07-20T10:03:28;101525.03;;;18.08
77728;BMP280;68312;53.502;10.030;2023-07-20T10:09:38;101501.78;;;21.68
77728;BMP280;68312;53.502;10.030;2023-07-20T10:12:05;101498.84;;;21.97
77728;BMP280;68312;53.502;10.030;2023-07-20T10:14:35;101502.38;;;22.28
77728;BMP280;68312;53.502;10.030;2023-07-20T10:17:07;101494.34;;;22.28
77728;BMP280;68312;53.502;10.030;2023-07-20T10:19:44;101499.78;;;22.59
77728;BMP280;68312;53.502;10.030;2023-07-20T10:22:14;101486.38;;;22.90
77728;BMP280;68312;53.502;10.030;2023-07-20T10:24:46;101490.19;;;22.55
77728;BMP280;68312;53.502;10.030;2023-07-20T10:27:13;101484.84;;;23.09
77728;BMP280;68312;53.502;10.030;2023-07-20T10:29:40;101484.47;;;22.53
77728;BMP280;68312;53.502;10.030;2023-07-20T10:32:08;101471.94;;;21.59
77728;BMP280;68312;53.502;10.030;2023-07-20T10:34:34;101476.78;;;20.48
77728;BMP280;68312;53.502;10.030;2023-07-20T10:36:59;101487.16;;;20.20
77728;BMP280;68312;53.502;10.030;2023-07-20T10:39:30;101482.25;;;21.04
77728;BMP280;68312;53.502;10.030;2023-07-20T10:42:10;101480.72;;;21.63
77728;BMP280;68312;53.502;10.030;2023-07-20T10:44:39;101480.88;;;20.78
77728;BMP280;68312;53.502;10.030;2023-07-20T10:47:09;101480.91;;;20.09
77728;BMP280;68312;53.502;10.030;2023-07-20T10:49:57;101486.13;;;19.45
77728;BMP280;68312;53.502;10.030;2023-07-20T10:52:23;101490.81;;;19.29
77728;BMP280;68312;53.502;10.030;2023-07-20T10:54:49;101521.72;;;19.11
77728;BMP280;68312;53.502;10.030;2023-07-20T10:57:29;101515.72;;;18.73
77728;BMP280;68312;53.502;10.030;2023-07-20T11:00:09;101513.81;;;18.74
77728;BMP280;68312;53.502;10.030;2023-07-20T11:02:58;101511.97;;;18.97
77728;BMP280;68312;53.502;10.030;2023-07-20T11:05:38;101518.13;;;19.00
77728;BMP280;68312;53.502;10.030;2023-07-20T11:08:09;101511.72;;;20.03
77728;BMP280;68312;53.502;10.030;2023-07-20T11:10:36;101514.34;;;21.07
77728;BMP280;68312;53.502;10.030;2023-07-20T11:13:18;101500.50;;;22.46
77728;BMP280;68312;53.502;10.030;2023-07-20T11:16:05;101511.16;;;22.18
77728;BMP280;68312;53.502;10.030;2023-07-20T11:21:51;101540.13;;;19.20
77728;BMP280;68312;53.502;10.030;2023-07-20T11:24:21;101538.97;;;17.87
77728;BMP280;68312;53.502;10.030;2023-07-20T11:26:50;101554.59;;;17.58
77728;BMP280;68312;53.502;10.030;2023-07-20T11:29:19;101548.16;;;17.43
77728;BMP280;68312;53.502;10.030;2023-07-20T11:31:46;101542.88;;;17.28
77728;BMP280;68312;53.502;10.030;2023-07-20T11:34:17;101543.72;;;17.47
77728;BMP280;68312;53.502;10.030;2023-07-20T11:36:46;101543.63;;;17.59
77728;BMP280;68312;53.502;10.030;2023-07-20T11:39:14;101543.47;;;18.01
77728;BMP280;68312;53.502;10.030;2023-07-20T11:41:46;101538.63;;;18.41
77728;BMP280;68312;53.502;10.030;2023-07-20T11:44:16;101535.63;;;18.79
77728;BMP280;68312;53.502;10.030;2023-07-20T11:50:22;101522.94;;;19.90
77728;BMP280;68312;53.502;10.030;2023-07-20T11:52:48;101521.69;;;20.10
77728;BMP280;68312;53.502;10.030;2023-07-20T11:55:14;101529.41;;;20.51
77728;BMP280;68312;53.502;10.030;2023-07-20T11:57:40;101512.63;;;20.50
77728;BMP280;68312;53.502;10.030;2023-07-20T12:00:05;101516.63;;;21.09
77728;BMP280;68312;53.502;10.030;2023-07-20T12:02:37;101517.25;;;20.89
77728;BMP280;68312;53.502;10.030;2023-07-20T12:05:04;101518.00;;;20.93
77728;BMP280;68312;53.502;10.030;2023-07-20T12:07:35;101536.84;;;20.67
77728;BMP280;68312;53.502;10.030;2023-07-20T12:10:09;101515.63;;;21.87
77728;BMP280;68312;53.502;10.030;2023-07-20T12:16:16;101500.53;;;22.59
77728;BMP280;68312;53.502;10.030;2023-07-20T12:18:43;101501.69;;;22.69
77728;BMP280;68312;53.502;10.030;2023-07-20T12:21:10;101498.53;;;22.19
77728;BMP280;68312;53.502;10.030;2023-07-20T12:23:38;101504.06;;;21.73
77728;BMP280;68312;53.502;10.030;2023-07-20T12:26:09;101489.78;;;22.39
77728;BMP280;68312;53.502;10.030;2023-07-20T12:28:39;101498.78;;;21.80
77728;BMP280;68312;53.502;10.030;2023-07-20T12:31:09;101526.09;;;20.25
77728;BMP280;68312;53.502;10.030;2023-07-20T12:33:36;101524.63;;;19.25
77728;BMP280;68312;53.502;10.030;2023-07-20T12:36:02;101520.19;;;18.70
77728;BMP280;68312;53.502;10.030;2023-07-20T12:38:27;101533.94;;;18.53
77728;BMP280;68312;53.502;10.030;2023-07-20T12:40:53;101536.69;;;18.56
77728;BMP280;68312;53.502;10.030;2023-07-20T12:43:22;101526.41;;;18.77
77728;BMP280;68312;53.502;10.030;2023-07-20T12:45:48;101526.69;;;18.91
77728;BMP280;68312;53.502;10.030;2023-07-20T12:48:13;101513.66;;;19.08
77728;BMP280;68312;53.502;10.030;2023-07-20T12:50:39;101520.25;;;19.61
77728;BMP280;68312;53.502;10.030;2023-07-20T12:53:05;101523.44;;;20.28
77728;BMP280;68312;53.502;10.030;2023-07-20T12:55:30;101508.34;;;20.10
77728;BMP280;68312;53.502;10.030;2023-07-20T12:57:57;101503.00;;;20.42
77728;BMP280;68312;53.502;10.030;2023-07-20T13:00:22;101502.28;;;20.42
77728;BMP280;68312;53.502;10.030;2023-07-20T13:02:48;101506.25;;;21.01
77728;BMP280;68312;53.502;10.030;2023-07-20T13:05:14;101506.91;;;22.04
77728;BMP280;68312;53.502;10.030;2023-07-20T13:07:41;101504.69;;;22.33
77728;BMP280;68312;53.502;10.030;2023-07-20T13:10:07;101497.88;;;23.04
77728;BMP280;68312;53.502;10.030;2023-07-20T13:12:34;101493.25;;;23.25
77728;BMP280;68312;53.502;10.030;2023-07-20T13:18:41;101497.09;;;22.86
77728;BMP280;68312;53.502;10.030;2023-07-20T13:21:06;101492.22;;;21.70
77728;BMP280;68312;53.502;10.030;2023-07-20T13:23:36;101495.75;;;21.25
77728;BMP280;68312;53.502;10.030;2023-07-20T13:26:02;101496.94;;;21.27
77728;BMP280;68312;53.502;10.030;2023-07-20T13:28:28;101512.50;;;20.72
77728;BMP280;68312;53.502;10.030;2023-07-20T13:30:53;101501.50;;;20.41
77728;BMP280;68312;53.502;10.030;2023-07-20T13:33:19;101497.13;;;21.58
77728;BMP280;68312;53.502;10.030;2023-07-20T13:35:44;101487.81;;;22.19
77728;BMP280;68312;53.502;10.030;2023-07-20T13:38:09;101492.88;;;22.89
77728;BMP280;68312;53.502;10.030;2023-07-20T13:40:35;101490.22;;;22.68
77728;BMP280;68312;53.502;10.030;2023-07-20T13:43:02;101479.13;;;22.83
77728;BMP280;68312;53.502;10.030;2023-07-20T13:45:27;101490.03;;;21.96
77728;BMP280;68312;53.502;10.030;2023-07-20T13:47:52;101493.31;;;21.62
77728;BMP280;68312;53.502;10.030;2023-07-20T13:50:18;101479.78;;;21.31
77728;BMP280;68312;53.502;10.030;2023-07-20T13:52:43;101490.84;;;21.30
77728;BMP280;68312;53.502;10.030;2023-07-20T13:58:50;101490.19;;;21.50
77728;BMP280;68312;53.502;10.030;2023-07-20T14:01:16;101495.81;;;22.02
77728;BMP280;68312;53.502;10.030;2023-07-20T14:03:42;101494.41;;;22.42
77728;BMP280;68312;53.502;10.030;2023-07-20T14:06:08;101491.72;;;21.48
77728;BMP280;68312;53.502;10.030;2023-07-20T14:08:34;101502.91;;;21.63
77728;BMP280;68312;53.502;10.030;2023-07-20T14:10:59;101490.91;;;21.44
77728;BMP280;68312;53.502;10.030;2023-07-20T14:13:24;101494.03;;;21.49
77728;BMP280;68312;53.502;10.030;2023-07-20T14:15:50;101492.81;;;22.20
77728;BMP280;68312;53.502;10.030;2023-07-20T14:18:16;101491.75;;;22.93
77728;BMP280;68312;53.502;10.030;2023-07-20T14:24:22;101490.28;;;23.94
77728;BMP280;68312;53.502;10.030;2023-07-20T14:26:47;101488.44;;;24.48
77728;BMP280;68312;53.502;10.030;2023-07-20T14:29:14;101483.13;;;24.41